Time;durP1;ratioP1;P1;durP2;ratioP2;P2;SDS_P1;SDS_P2;PMS_P1;PMS_P2;Temp;Humidity;BMP_temperature;BMP_pressure;BME280_temperature;BME280_humidity;BME280_pressure;Samples;Min_cycle;Max_cycle;Signal;HPM_P1;HPM_P2
2024/01/15 00:00:54;;;;;;;1.30;1.30;;;0.70;99.90;;;;;;4979689;29;20204;-78
2024/01/15 00:03:21;;;;;;;1.80;1.70;;;0.70;99.90;;;;;;4978314;28;20255;-79
2024/01/15 00:05:48;;;;;;;1.73;1.58;;;0.70;99.90;;;;;;4973746;28;20215;-78
2024/01/15 00:08:15;;;;;;;1.17;1.10;;;0.70;99.90;;;;;;4962866;28;20515;-78
2024/01/15 00:10:42;;;;;;;3.42;1.70;;;0.80;99.90;;;;;;4964566;28;20234;-82
2024/01/15 00:13:09;;;;;;;2.35;2.15;;;0.80;99.90;;;;;;4962535;28;20239;-82
2024/01/15 00:15:38;;;;;;;0.80;0.80;;;0.80;99.90;;;;;;4961389;28;20239;-81
2024/01/15 00:18:05;;;;;;;1.52;1.45;;;0.80;99.90;;;;;;4950326;29;20220;-83
2024/01/15 00:20:33;;;;;;;6.32;2.13;;;0.80;99.90;;;;;;4961756;28;20425;-79
2024/01/15 00:23:01;;;;;;;1.42;1.42;;;0.80;99.90;;;;;;4951233;29;20672;-81
2024/01/15 00:25:28;;;;;;;1.20;1.20;;;0.80;99.90;;;;;;4962225;28;20216;-80
2024/01/15 00:27:55;;;;;;;1.10;1.05;;;0.90;99.90;;;;;;4962071;28;20238;-82
2024/01/15 00:30:25;;;;;;;2.95;2.70;;;0.80;99.90;;;;;;4960819;29;20211;-81
2024/01/15 00:32:53;;;;;;;0.50;0.50;;;0.80;99.90;;;;;;4960267;29;20235;-80
2024/01/15 00:35:20;;;;;;;2.58;1.33;;;0.80;99.90;;;;;;4959301;28;20224;-80
2024/01/15 00:37:47;;;;;;;0.80;0.80;;;0.80;99.90;;;;;;4959990;28;20568;-80
2024/01/15 00:40:14;;;;;;;1.25;1.13;;;0.80;99.90;;;;;;4946470;29;20263;-82
2024/01/15 00:42:41;;;;;;;1.80;1.70;;;0.80;99.90;;;;;;4959338;28;20419;-80
2024/01/15 00:45:09;;;;;;;0.82;0.82;;;0.90;99.90;;;;;;4953692;28;20223;-79
2024/01/15 00:47:36;;;;;;;1.05;1.05;;;0.90;99.90;;;;;;4962700;28;20311;-83
2024/01/15 00:50:03;;;;;;;0.60;0.60;;;0.90;99.90;;;;;;4958228;29;20267;-80
2024/01/15 00:52:30;;;;;;;1.00;0.90;;;0.90;99.90;;;;;;4961051;28;20421;-80
2024/01/15 00:54:57;;;;;;;1.52;1.42;;;0.90;99.90;;;;;;4962970;28;20306;-80
2024/01/15 00:57:24;;;;;;;2.42;2.33;;;0.90;99.90;;;;;;4965567;28;20500;-81
2024/01/15 00:59:51;;;;;;;1.95;1.77;;;0.90;99.90;;;;;;4960060;28;20227;-81
2024/01/15 01:02:18;;;;;;;1.52;1.42;;;0.90;99.90;;;;;;4960322;28;20211;-81
2024/01/15 01:04:45;;;;;;;1.95;1.85;;;1.00;99.90;;;;;;4960085;28;20266;-81
2024/01/15 01:07:12;;;;;;;1.95;1.35;;;1.00;99.90;;;;;;4960317;28;20235;-80
2024/01/15 01:09:46;;;;;;;2.40;2.20;;;1.00;99.90;;;;;;4943827;29;20219;-80
2024/01/15 01:12:13;;;;;;;4.20;3.80;;;0.90;99.90;;;;;;4959971;28;20282;-81
2024/01/15 01:14:40;;;;;;;2.85;2.28;;;0.90;99.90;;;;;;4943343;28;20585;-80
2024/01/15 01:17:08;;;;;;;1.55;1.25;;;0.90;99.90;;;;;;4960585;28;20270;-79
2024/01/15 01:19:35;;;;;;;2.13;2.03;;;0.90;99.90;;;;;;4960523;28;20207;-79
2024/01/15 01:22:02;;;;;;;0.70;0.70;;;0.90;99.90;;;;;;4960286;28;20512;-79
2024/01/15 01:24:29;;;;;;;1.40;1.30;;;0.90;99.90;;;;;;4960021;28;20208;-82
2024/01/15 01:26:57;;;;;;;2.05;1.95;;;1.00;99.90;;;;;;4960161;28;20207;-80
2024/01/15 01:29:26;;;;;;;3.28;3.05;;;1.00;99.90;;;;;;4959882;28;20235;-80
2024/01/15 01:31:53;;;;;;;2.15;2.05;;;1.00;99.90;;;;;;4958786;28;20207;-81
2024/01/15 01:34:22;;;;;;;1.42;1.42;;;1.00;99.90;;;;;;4950637;29;20563;-79
2024/01/15 01:36:48;;;;;;;4.57;4.25;;;1.00;99.90;;;;;;4962321;28;20212;-80
2024/01/15 01:39:17;;;;;;;2.42;2.30;;;1.00;99.90;;;;;;4962763;28;20210;-82
2024/01/15 01:41:44;;;;;;;1.10;1.10;;;1.10;99.90;;;;;;4962986;28;20562;-81
2024/01/15 01:44:11;;;;;;;2.67;2.25;;;1.00;99.90;;;;;;4961413;28;20263;-80
2024/01/15 01:46:40;;;;;;;1.77;1.67;;;1.00;99.90;;;;;;4960966;28;20415;-82
2024/01/15 01:49:09;;;;;;;2.78;1.35;;;1.00;99.90;;;;;;4940301;29;20290;-80
2024/01/15 01:51:39;;;;;;;4.82;2.20;;;1.10;99.90;;;;;;4966893;29;20220;-81
2024/01/15 01:54:09;;;;;;;1.55;1.52;;;1.00;99.90;;;;;;4966227;28;20235;-81
2024/01/15 01:56:36;;;;;;;1.73;1.63;;;1.00;99.90;;;;;;4939270;29;20203;-79
2024/01/15 01:59:04;;;;;;;1.17;1.17;;;1.00;99.90;;;;;;4968733;28;20206;-80
2024/01/15 02:01:31;;;;;;;6.15;3.08;;;1.00;99.90;;;;;;4973325;28;20242;-80
2024/01/15 02:03:59;;;;;;;1.63;1.52;;;1.00;99.90;;;;;;4961555;28;20216;-80
2024/01/15 02:06:27;;;;;;;4.32;4.00;;;1.00;99.90;;;;;;4960002;29;20211;-81
2024/01/15 02:08:54;;;;;;;2.45;2.35;;;0.80;99.90;;;;;;4959229;28;20404;-79
2024/01/15 02:11:21;;;;;;;0.82;0.82;;;0.70;99.90;;;;;;4959375;28;20235;-80
2024/01/15 02:13:49;;;;;;;0.80;0.80;;;0.70;99.90;;;;;;4959545;28;20238;-80
2024/01/15 02:16:17;;;;;;;2.88;1.33;;;0.70;99.90;;;;;;4959663;29;20212;-79
2024/01/15 02:18:46;;;;;;;3.63;2.17;;;0.60;99.90;;;;;;4959543;28;20211;-81
2024/01/15 02:21:13;;;;;;;2.00;1.92;;;0.60;99.90;;;;;;4959727;29;20466;-82
2024/01/15 02:23:41;;;;;;;4.18;3.88;;;0.50;99.90;;;;;;4960386;28;20270;-80
2024/01/15 02:26:08;;;;;;;0.70;0.70;;;0.40;99.90;;;;;;4943837;29;20412;-81
2024/01/15 02:28:36;;;;;;;2.97;2.05;;;0.40;99.90;;;;;;4959653;28;20211;-82
2024/01/15 02:31:03;;;;;;;1.88;1.77;;;0.40;99.90;;;;;;4959686;29;20250;-80
2024/01/15 02:33:33;;;;;;;1.65;1.55;;;0.40;99.90;;;;;;4959381;28;20204;-81
2024/01/15 02:36:02;;;;;;;2.10;1.92;;;0.40;99.90;;;;;;4958503;28;20216;-81
2024/01/15 02:38:29;;;;;;;5.57;4.57;;;0.40;99.90;;;;;;4959908;28;20223;-80
2024/01/15 02:40:56;;;;;;;1.38;1.27;;;0.50;99.90;;;;;;4950053;28;20215;-81
2024/01/15 02:43:25;;;;;;;1.00;1.00;;;0.50;99.90;;;;;;4967355;28;20275;-82
2024/01/15 02:45:52;;;;;;;9.68;2.55;;;0.60;99.90;;;;;;4965683;29;20222;-81
2024/01/15 02:48:22;;;;;;;1.65;1.55;;;0.60;99.90;;;;;;4973999;28;20239;-81
2024/01/15 02:50:49;;;;;;;0.80;0.80;;;0.60;99.90;;;;;;4965242;28;20569;-83
2024/01/15 02:53:16;;;;;;;5.05;2.80;;;0.60;99.90;;;;;;4963749;29;20203;-80
2024/01/15 02:55:45;;;;;;;3.05;2.83;;;0.50;99.90;;;;;;4966604;29;20231;-80
2024/01/15 02:58:12;;;;;;;1.17;1.17;;;0.50;99.90;;;;;;4975697;28;20204;-79
2024/01/15 03:00:39;;;;;;;0.80;0.80;;;0.60;99.90;;;;;;4983096;28;20251;-80
2024/01/15 03:03:06;;;;;;;1.02;1.02;;;0.60;99.90;;;;;;4980483;28;20215;-80
2024/01/15 03:05:34;;;;;;;1.63;1.52;;;0.60;99.90;;;;;;4981674;28;20188;-81
2024/01/15 03:08:01;;;;;;;0.95;0.95;;;0.60;99.90;;;;;;4978925;28;20203;-80
2024/01/15 03:10:28;;;;;;;3.75;1.83;;;0.60;99.90;;;;;;4971083;28;20239;-80
2024/01/15 03:12:55;;;;;;;2.67;2.55;;;0.70;99.90;;;;;;4963566;28;20510;-80
2024/01/15 03:15:22;;;;;;;0.47;0.47;;;0.70;99.90;;;;;;4964542;28;20263;-79
2024/01/15 03:17:52;;;;;;;1.42;1.27;;;0.70;99.90;;;;;;4963011;28;20274;-81
2024/01/15 03:20:19;;;;;;;3.83;1.95;;;0.70;99.90;;;;;;4946193;29;20207;-80
2024/01/15 03:22:46;;;;;;;2.65;1.77;;;0.70;99.90;;;;;;4962735;28;20392;-80
2024/01/15 03:25:13;;;;;;;1.75;1.05;;;0.80;99.90;;;;;;4962376;29;20211;-80
2024/01/15 03:27:40;;;;;;;0.50;0.50;;;0.80;99.90;;;;;;4961224;28;20206;-81
2024/01/15 03:30:08;;;;;;;1.42;1.42;;;0.80;99.90;;;;;;4962226;28;20219;-80
2024/01/15 03:32:35;;;;;;;1.83;1.73;;;0.90;99.90;;;;;;4962087;28;20208;-80
2024/01/15 03:35:02;;;;;;;6.10;1.42;;;0.80;99.90;;;;;;4962135;28;20231;-80
2024/01/15 03:37:29;;;;;;;1.33;1.23;;;0.80;99.90;;;;;;4962004;28;20208;-81
2024/01/15 03:39:56;;;;;;;2.17;2.08;;;0.80;99.90;;;;;;4962262;28;20437;-79
2024/01/15 03:42:24;;;;;;;1.77;1.60;;;0.90;99.90;;;;;;4962308;28;20309;-80
2024/01/15 03:44:51;;;;;;;1.25;1.25;;;0.90;99.90;;;;;;4962445;28;20211;-81
2024/01/15 03:47:18;;;;;;;3.78;3.40;;;0.80;99.90;;;;;;4965572;28;20280;-81
2024/01/15 03:49:44;;;;;;;1.00;1.00;;;0.90;99.90;;;;;;4966339;29;20266;-80
2024/01/15 03:52:12;;;;;;;0.70;0.70;;;0.90;99.90;;;;;;4968131;28;20238;-80
2024/01/15 03:54:43;;;;;;;0.82;0.82;;;0.90;99.90;;;;;;4968471;28;20461;-80
2024/01/15 03:57:14;;;;;;;0.40;0.40;;;0.90;99.90;;;;;;4963192;29;20215;-82
2024/01/15 03:59:41;;;;;;;2.30;1.45;;;0.90;99.90;;;;;;4961965;28;20211;-81
2024/01/15 04:02:09;;;;;;;1.73;1.63;;;0.90;99.90;;;;;;4961277;28;20271;-82
2024/01/15 04:04:40;;;;;;;0.95;0.95;;;0.90;99.90;;;;;;4961757;28;20273;-80
2024/01/15 04:07:09;;;;;;;1.30;1.30;;;0.90;99.90;;;;;;4961261;28;20395;-81
2024/01/15 04:09:36;;;;;;;2.97;2.75;;;0.90;99.90;;;;;;4963423;29;20211;-84
2024/01/15 04:12:05;;;;;;;0.47;0.47;;;0.90;99.90;;;;;;4956758;28;20436;-83
2024/01/15 04:14:32;;;;;;;2.28;2.17;;;1.00;99.90;;;;;;4964118;29;20227;-84
2024/01/15 04:17:00;;;;;;;0.80;0.80;;;0.90;99.90;;;;;;4959596;28;20267;-84
2024/01/15 04:19:32;;;;;;;2.05;1.40;;;0.90;99.90;;;;;;4964065;28;20207;-83
2024/01/15 04:22:00;;;;;;;1.05;1.05;;;0.80;99.90;;;;;;4946481;28;20215;-83
2024/01/15 04:24:31;;;;;;;0.40;0.40;;;0.80;99.90;;;;;;4949635;29;20214;-83
2024/01/15 04:26:59;;;;;;;0.88;0.88;;;0.80;99.90;;;;;;4963511;28;20309;-83
2024/01/15 04:29:29;;;;;;;1.17;1.15;;;0.80;99.90;;;;;;4936030;29;20728;-83
2024/01/15 04:31:55;;;;;;;1.20;1.20;;;0.80;99.90;;;;;;4942522;29;20208;-83
2024/01/15 04:34:28;;;;;;;0.75;0.75;;;0.80;99.90;;;;;;4973515;28;20250;-81
2024/01/15 04:36:58;;;;;;;0.70;0.70;;;0.80;99.90;;;;;;4963906;28;20282;-80
2024/01/15 04:39:24;;;;;;;1.30;1.23;;;0.80;99.90;;;;;;4961729;28;20207;-82
2024/01/15 04:41:53;;;;;;;7.05;3.20;;;0.80;99.90;;;;;;4964810;28;20208;-80
2024/01/15 04:44:26;;;;;;;7.88;2.78;;;0.90;99.90;;;;;;4968465;28;20242;-82
2024/01/15 04:46:53;;;;;;;1.80;1.67;;;0.90;99.90;;;;;;4969564;28;20215;-80
2024/01/15 04:49:22;;;;;;;1.45;1.35;;;0.80;99.90;;;;;;4960774;29;20311;-82
2024/01/15 04:51:49;;;;;;;1.23;1.23;;;0.80;99.90;;;;;;4962281;29;20262;-82
2024/01/15 04:54:26;;;;;;;0.95;0.95;;;0.90;99.90;;;;;;4966188;28;20294;-83
2024/01/15 04:56:55;;;;;;;3.28;2.85;;;0.80;99.90;;;;;;4972800;28;20200;-80
2024/01/15 04:59:22;;;;;;;40.40;2.78;;;0.80;99.90;;;;;;4974453;28;20212;-83
2024/01/15 05:01:52;;;;;;;2.20;2.10;;;0.80;99.90;;;;;;4950370;29;20219;-83
2024/01/15 05:04:21;;;;;;;4.60;2.35;;;0.90;99.90;;;;;;4969312;28;20207;-82
2024/01/15 05:06:50;;;;;;;1.30;1.27;;;0.90;99.90;;;;;;4957571;28;20271;-82
2024/01/15 05:09:20;;;;;;;0.40;0.40;;;0.90;99.90;;;;;;4963351;28;20230;-85
2024/01/15 05:11:47;;;;;;;0.80;0.80;;;0.90;99.90;;;;;;4946549;29;20381;-82
2024/01/15 05:14:15;;;;;;;1.98;1.88;;;0.90;99.90;;;;;;4961318;28;20252;-82
2024/01/15 05:16:54;;;;;;;0.60;0.60;;;0.90;99.90;;;;;;4962218;29;20259;-81
2024/01/15 05:19:22;;;;;;;0.50;0.50;;;1.00;99.90;;;;;;4961373;28;20281;-82
2024/01/15 05:21:53;;;;;;;0.47;0.47;;;1.00;99.90;;;;;;4948318;29;20707;-82
2024/01/15 05:24:21;;;;;;;0.77;0.77;;;1.00;99.90;;;;;;4961194;28;20447;-84
2024/01/15 05:26:50;;;;;;;3.20;2.90;;;1.00;99.90;;;;;;4944278;29;20207;-83
2024/01/15 05:29:18;;;;;;;1.50;1.30;;;1.10;99.90;;;;;;4948350;28;20273;-81
2024/01/15 05:31:45;;;;;;;0.77;0.77;;;1.00;99.90;;;;;;4967255;28;20208;-80
2024/01/15 05:34:12;;;;;;;2.70;2.50;;;1.00;99.90;;;;;;4960955;28;20512;-82
2024/01/15 05:36:40;;;;;;;0.50;0.50;;;0.90;99.90;;;;;;4961674;28;20199;-81
2024/01/15 05:39:13;;;;;;;0.70;0.70;;;0.70;99.90;;;;;;4944384;28;20211;-82
2024/01/15 05:41:45;;;;;;;2.63;2.03;;;0.70;99.90;;;;;;4944550;29;20658;-83
2024/01/15 05:44:13;;;;;;;1.95;1.85;;;0.60;99.90;;;;;;4961720;28;20481;-81
2024/01/15 05:46:40;;;;;;;0.60;0.60;;;0.50;99.90;;;;;;4961831;28;20700;-83
2024/01/15 05:49:10;;;;;;;0.50;0.50;;;0.50;99.90;;;;;;4963371;29;20275;-83
2024/01/15 05:51:37;;;;;;;0.50;0.50;;;0.50;99.90;;;;;;4964170;29;20246;-82
2024/01/15 05:54:04;;;;;;;2.15;2.05;;;0.50;99.90;;;;;;4972612;28;20279;-82
2024/01/15 05:56:31;;;;;;;0.77;0.77;;;0.50;99.90;;;;;;4952373;29;20291;-82
2024/01/15 05:58:58;;;;;;;2.65;1.23;;;0.60;99.90;;;;;;4965457;28;20206;-81
2024/01/15 06:01:26;;;;;;;1.98;1.88;;;0.60;99.90;;;;;;4959973;29;20287;-84
2024/01/15 06:03:53;;;;;;;1.65;1.60;;;0.60;99.90;;;;;;4961362;29;20207;-81
2024/01/15 06:06:20;;;;;;;0.40;0.40;;;0.60;99.90;;;;;;4961447;29;20235;-81
2024/01/15 06:08:49;;;;;;;1.10;1.05;;;0.60;99.90;;;;;;4962196;28;20387;-80
2024/01/15 06:11:16;;;;;;;0.60;0.60;;;0.60;99.90;;;;;;4956756;28;20203;-81
2024/01/15 06:13:43;;;;;;;1.05;1.02;;;0.60;99.90;;;;;;4941723;29;20207;-81
2024/01/15 06:16:15;;;;;;;2.35;1.50;;;0.60;99.90;;;;;;4960001;28;20243;-83
2024/01/15 06:18:43;;;;;;;0.82;0.82;;;0.60;99.90;;;;;;4946819;29;20304;-81
2024/01/15 06:21:12;;;;;;;10.43;1.25;;;0.60;99.90;;;;;;4963431;28;20215;-80
2024/01/15 06:23:39;;;;;;;1.40;1.40;;;0.60;99.90;;;;;;4962915;28;20556;-83
2024/01/15 06:26:06;;;;;;;0.65;0.65;;;0.60;99.90;;;;;;4972009;28;20207;-83
2024/01/15 06:28:33;;;;;;;1.42;1.42;;;0.60;99.90;;;;;;4963845;28;20235;-82
2024/01/15 06:31:01;;;;;;;0.50;0.50;;;0.60;99.90;;;;;;4964094;28;20471;-82
2024/01/15 06:33:28;;;;;;;1.48;1.40;;;0.60;99.90;;;;;;4964384;28;20223;-82
2024/01/15 06:35:56;;;;;;;0.50;0.50;;;0.60;99.90;;;;;;4968411;28;20263;-82
2024/01/15 06:38:28;;;;;;;0.50;0.50;;;0.60;99.90;;;;;;4964168;28;20203;-83
2024/01/15 06:41:03;;;;;;;1.00;1.00;;;0.60;99.90;;;;;;4965242;29;20211;-84
2024/01/15 06:43:32;;;;;;;1.33;1.23;;;0.50;99.90;;;;;;4965785;28;20211;-81
2024/01/15 06:46:04;;;;;;;1.52;1.42;;;0.60;99.90;;;;;;4962772;28;20687;-82
2024/01/15 06:48:34;;;;;;;0.70;0.70;;;0.70;99.90;;;;;;4968738;28;20202;-83
2024/01/15 06:51:01;;;;;;;0.40;0.40;;;0.60;99.90;;;;;;4972886;28;20222;-82
2024/01/15 06:53:29;;;;;;;0.93;0.93;;;0.60;99.90;;;;;;4964562;28;20287;-84
2024/01/15 06:55:56;;;;;;;0.98;0.98;;;0.50;99.90;;;;;;4947392;29;20427;-84
2024/01/15 06:58:23;;;;;;;4.22;3.80;;;0.60;99.90;;;;;;4965092;28;20377;-82
2024/01/15 07:00:51;;;;;;;1.73;1.67;;;0.60;99.90;;;;;;4951107;29;20227;-82
2024/01/15 07:03:19;;;;;;;1.88;1.70;;;0.60;99.90;;;;;;4963802;29;20274;-81
2024/01/15 07:05:46;;;;;;;2.42;2.33;;;0.70;99.90;;;;;;4964477;28;20241;-82
2024/01/15 07:08:14;;;;;;;0.90;0.90;;;0.70;99.90;;;;;;4949024;28;20397;-82
2024/01/15 07:10:41;;;;;;;2.65;2.55;;;0.80;99.90;;;;;;4963612;28;20200;-79
2024/01/15 07:13:09;;;;;;;1.83;1.73;;;0.80;99.90;;;;;;4964127;28;20227;-81
2024/01/15 07:15:36;;;;;;;1.25;1.23;;;0.80;99.90;;;;;;4963376;28;20251;-82
2024/01/15 07:18:03;;;;;;;1.00;1.00;;;0.80;99.90;;;;;;4951143;29;20223;-83
2024/01/15 07:20:30;;;;;;;3.97;3.58;;;0.80;99.90;;;;;;4964304;28;20216;-83
2024/01/15 07:22:57;;;;;;;0.93;0.93;;;0.90;99.90;;;;;;4964096;28;20208;-82
2024/01/15 07:25:26;;;;;;;0.90;0.90;;;0.80;99.90;;;;;;4964307;28;20258;-82
2024/01/15 07:27:54;;;;;;;0.80;0.80;;;1.00;99.90;;;;;;4963792;28;20228;-80
2024/01/15 07:30:21;;;;;;;1.42;1.42;;;1.00;99.90;;;;;;4962699;28;20234;-80
2024/01/15 07:32:52;;;;;;;1.42;0.82;;;1.10;99.90;;;;;;4968229;28;20268;-82
2024/01/15 07:35:19;;;;;;;1.13;1.13;;;1.00;99.90;;;;;;4968000;28;20227;-83
2024/01/15 07:37:46;;;;;;;1.70;1.60;;;1.00;99.90;;;;;;4950091;28;20213;-82
2024/01/15 07:40:14;;;;;;;2.25;2.15;;;1.10;99.90;;;;;;4963727;28;20271;-84
2024/01/15 07:42:42;;;;;;;1.25;1.15;;;1.00;99.90;;;;;;4956065;29;20207;-83
2024/01/15 07:45:11;;;;;;;0.57;0.57;;;1.10;99.90;;;;;;4977238;28;20271;-82
2024/01/15 07:47:38;;;;;;;1.15;1.13;;;1.10;99.90;;;;;;4976648;28;20203;-82
2024/01/15 07:50:05;;;;;;;0.50;0.50;;;1.10;99.90;;;;;;4961710;29;20307;-80
2024/01/15 07:52:33;;;;;;;0.55;0.55;;;1.20;99.90;;;;;;4972581;28;20217;-81
2024/01/15 07:55:00;;;;;;;0.70;0.70;;;1.20;99.90;;;;;;4972637;28;20251;-83
2024/01/15 07:57:27;;;;;;;1.08;1.08;;;1.30;99.90;;;;;;4970803;29;20245;-79
2024/01/15 07:59:54;;;;;;;1.92;1.83;;;1.30;99.90;;;;;;4964028;29;20215;-81
2024/01/15 08:02:22;;;;;;;1.77;1.67;;;1.30;99.90;;;;;;4964918;28;20204;-81
2024/01/15 08:04:49;;;;;;;0.75;0.75;;;1.30;99.90;;;;;;4965496;28;20215;-81
2024/01/15 08:07:17;;;;;;;4.63;2.22;;;1.30;99.90;;;;;;4963430;28;20203;-79
2024/01/15 08:09:46;;;;;;;0.52;0.52;;;1.40;99.90;;;;;;4953429;28;20275;-80
2024/01/15 08:12:13;;;;;;;2.08;1.00;;;1.30;99.90;;;;;;4962123;28;20211;-81
2024/01/15 08:14:40;;;;;;;0.50;0.50;;;1.40;99.90;;;;;;4962590;29;20507;-82
2024/01/15 08:17:07;;;;;;;1.33;1.25;;;1.40;99.90;;;;;;4962897;29;20265;-81
2024/01/15 08:19:34;;;;;;;0.60;0.60;;;1.30;99.90;;;;;;4969261;29;20223;-84
2024/01/15 08:22:01;;;;;;;35.10;2.85;;;1.40;99.90;;;;;;4971259;28;20270;-81
2024/01/15 08:24:28;;;;;;;2.47;2.30;;;1.40;99.90;;;;;;4966359;29;20401;-84
2024/01/15 08:26:56;;;;;;;1.08;1.02;;;1.50;99.90;;;;;;4963215;28;20266;-83
2024/01/15 08:29:24;;;;;;;1.67;1.58;;;1.50;99.90;;;;;;4962532;28;20243;-83
2024/01/15 08:31:52;;;;;;;1.15;1.15;;;1.60;99.90;;;;;;4962302;28;20207;-82
2024/01/15 08:34:19;;;;;;;0.60;0.60;;;1.60;99.90;;;;;;4963216;28;20217;-83
2024/01/15 08:36:49;;;;;;;0.68;0.68;;;1.70;99.90;;;;;;4949980;28;20223;-82
2024/01/15 08:39:16;;;;;;;0.50;0.50;;;1.60;99.90;;;;;;4969143;28;20525;-80
2024/01/15 08:41:44;;;;;;;1.17;1.10;;;1.60;99.90;;;;;;4964251;28;20274;-82
2024/01/15 08:44:12;;;;;;;2.10;1.95;;;1.60;99.90;;;;;;4970034;28;20459;-82
2024/01/15 08:46:39;;;;;;;0.50;0.50;;;1.60;99.90;;;;;;4962309;28;20212;-80
2024/01/15 08:49:06;;;;;;;1.25;1.15;;;1.50;99.90;;;;;;4962376;28;20568;-82
2024/01/15 08:51:35;;;;;;;0.73;0.73;;;1.50;99.90;;;;;;4963080;28;20302;-81
2024/01/15 08:54:05;;;;;;;0.88;0.88;;;1.50;99.90;;;;;;4963571;28;20208;-82
2024/01/15 08:56:33;;;;;;;1.50;1.13;;;1.60;99.90;;;;;;4961063;28;20265;-80
2024/01/15 08:59:00;;;;;;;0.95;0.95;;;1.70;99.90;;;;;;4960986;28;20527;-79
2024/01/15 09:01:27;;;;;;;1.30;1.27;;;1.80;99.90;;;;;;4962502;28;20211;-81
2024/01/15 09:03:54;;;;;;;0.80;0.80;;;1.90;99.90;;;;;;4961016;28;20283;-80
2024/01/15 09:06:21;;;;;;;0.70;0.70;;;1.90;99.90;;;;;;4961374;28;20211;-85
2024/01/15 09:08:49;;;;;;;0.50;0.50;;;2.00;99.90;;;;;;4961750;28;20254;-81
2024/01/15 09:11:17;;;;;;;0.82;0.82;;;1.90;99.90;;;;;;4962241;28;20215;-79
2024/01/15 09:13:44;;;;;;;1.25;1.15;;;2.00;99.90;;;;;;4963130;28;20238;-81
2024/01/15 09:16:11;;;;;;;0.50;0.50;;;1.90;99.90;;;;;;4975685;28;20238;-83
2024/01/15 09:18:38;;;;;;;0.40;0.40;;;2.00;99.90;;;;;;4974538;28;20222;-80
2024/01/15 09:21:07;;;;;;;0.52;0.52;;;2.00;99.90;;;;;;4964192;29;20242;-82
2024/01/15 09:23:43;;;;;;;0.60;0.60;;;2.00;99.90;;;;;;4963344;28;20396;-81
2024/01/15 09:26:11;;;;;;;1.35;1.35;;;2.10;99.90;;;;;;4962085;28;20200;-79
2024/01/15 09:28:40;;;;;;;0.47;0.47;;;2.10;99.90;;;;;;4967078;28;20404;-79
2024/01/15 09:31:06;;;;;;;0.50;0.50;;;2.00;99.90;;;;;;4962200;29;20238;-83
2024/01/15 09:33:33;;;;;;;0.70;0.70;;;2.00;99.90;;;;;;4962844;28;20218;-82
2024/01/15 09:36:03;;;;;;;0.95;0.95;;;2.10;99.90;;;;;;4963196;28;20236;-81
2024/01/15 09:38:31;;;;;;;1.08;1.08;;;2.20;99.90;;;;;;4961454;28;20235;-79
2024/01/15 09:40:58;;;;;;;0.55;0.55;;;2.10;99.90;;;;;;4975091;28;20427;-80
2024/01/15 09:43:26;;;;;;;0.60;0.60;;;2.00;99.90;;;;;;4979682;28;20218;-78
2024/01/15 09:46:02;;;;;;;0.55;0.55;;;1.90;99.90;;;;;;4975896;28;20197;-83
2024/01/15 09:59:40;;;;;;;0.68;0.68;;;2.30;99.90;;;;;;5866992;23;20482;-80
2024/01/15 10:02:44;;;;;;;0.50;0.50;;;2.30;99.90;;;;;;4985250;28;20214;-80
2024/01/15 10:05:30;;;;;;;0.60;0.60;;;2.30;99.90;;;;;;5018511;28;20202;-82
2024/01/15 10:09:14;;;;;;;1.15;1.15;;;2.30;99.90;;;;;;4987740;28;20207;-83
2024/01/15 10:17:35;;;;;;;0.50;0.50;;;2.30;99.90;;;;;;5762673;23;20225;-81
2024/01/15 10:37:04;;;;;;;2.40;1.42;;;2.50;99.90;;;;;;5044593;23;20291;-82
2024/01/15 11:19:50;;;;;;;0.50;0.50;;;2.80;99.90;;;;;;5648841;23;20309;-81
2024/01/15 11:22:56;;;;;;;1.50;1.40;;;2.90;99.90;;;;;;4986854;28;20203;-81
2024/01/15 11:25:49;;;;;;;0.50;0.50;;;3.10;99.90;;;;;;5007722;28;20199;-80
2024/01/15 11:28:48;;;;;;;0.70;0.70;;;3.30;99.90;;;;;;4996395;28;20242;-82
2024/01/15 11:33:56;;;;;;;2.55;1.05;;;3.20;99.90;;;;;;6048025;23;20177;-80
2024/01/15 11:37:03;;;;;;;0.70;0.70;;;3.20;99.90;;;;;;4984865;28;20281;-82
2024/01/15 11:39:56;;;;;;;0.50;0.50;;;3.00;99.90;;;;;;4994708;28;20194;-79
2024/01/15 11:42:59;;;;;;;0.60;0.60;;;3.00;99.90;;;;;;5016389;28;20198;-79
2024/01/15 11:45:29;;;;;;;0.65;0.65;;;2.80;99.90;;;;;;5008008;28;20202;-80
2024/01/15 11:48:54;;;;;;;0.75;0.75;;;2.70;99.90;;;;;;5001149;28;20226;-77
2024/01/15 11:51:23;;;;;;;0.95;0.70;;;2.60;99.90;;;;;;5009585;28;20258;-81
2024/01/15 11:54:10;;;;;;;0.85;0.85;;;2.60;99.90;;;;;;5026512;28;20214;-81
2024/01/15 11:57:31;;;;;;;0.50;0.50;;;2.80;99.90;;;;;;4989116;28;20210;-83
2024/01/15 12:03:09;;;;;;;0.50;0.50;;;3.00;99.90;;;;;;5646693;23;20601;-80
2024/01/15 12:05:41;;;;;;;0.70;0.70;;;3.20;99.90;;;;;;4998799;28;20203;-79
2024/01/15 12:08:10;;;;;;;0.95;0.95;;;3.10;99.90;;;;;;4977977;28;20198;-81
2024/01/15 12:15:03;;;;;;;0.57;0.57;;;3.10;99.90;;;;;;4971063;28;20207;-81
2024/01/15 12:18:37;;;;;;;0.60;0.60;;;3.00;99.90;;;;;;4884607;29;20214;-84
2024/01/15 12:21:26;;;;;;;0.63;0.63;;;2.80;99.90;;;;;;4901882;29;20314;-84
2024/01/15 12:23:59;;;;;;;0.50;0.50;;;2.70;99.90;;;;;;5634453;23;20192;-83
2024/01/15 12:29:39;;;;;;;0.60;0.60;;;2.80;99.90;;;;;;5378988;23;20237;-81
2024/01/15 12:35:41;;;;;;;1.27;1.27;;;2.80;99.90;;;;;;5696929;23;20247;-83
2024/01/15 12:38:40;;;;;;;5.35;1.40;;;2.80;99.90;;;;;;5028174;28;20189;-82
2024/01/15 12:41:09;;;;;;;3.10;2.88;;;2.80;99.90;;;;;;5035513;28;20231;-81
2024/01/15 12:43:36;;;;;;;1.30;1.30;;;2.80;99.90;;;;;;5034415;28;20189;-79
2024/01/15 12:46:05;;;;;;;0.65;0.65;;;2.70;99.90;;;;;;5021911;28;20218;-81
2024/01/15 12:48:36;;;;;;;0.50;0.50;;;2.70;99.90;;;;;;5023536;28;20200;-81
2024/01/15 12:51:24;;;;;;;1.55;0.73;;;2.70;99.90;;;;;;5021762;28;20233;-81
2024/01/15 12:54:06;;;;;;;1.05;1.05;;;2.60;99.90;;;;;;5016937;28;20209;-81
2024/01/15 12:56:33;;;;;;;0.77;0.77;;;2.70;99.90;;;;;;5019548;28;20233;-81
2024/01/15 13:13:01;;;;;;;0.50;0.50;;;2.60;99.90;;;;;;6060728;23;20173;-80
2024/01/15 13:15:28;;;;;;;0.50;0.50;;;2.50;99.90;;;;;;4990431;28;20391;-78
2024/01/15 13:17:56;;;;;;;0.60;0.60;;;2.50;99.90;;;;;;4990030;28;20242;-81
2024/01/15 13:20:23;;;;;;;0.60;0.60;;;2.50;99.90;;;;;;4990792;28;20230;-81
2024/01/15 13:22:50;;;;;;;0.90;0.90;;;2.40;99.90;;;;;;4990476;28;20209;-80
2024/01/15 13:25:17;;;;;;;0.50;0.50;;;2.40;99.90;;;;;;4989669;28;20230;-82
2024/01/15 13:27:44;;;;;;;3.65;3.45;;;2.40;99.90;;;;;;4997674;28;20541;-80
2024/01/15 13:30:12;;;;;;;0.50;0.50;;;2.40;99.90;;;;;;4995738;28;20198;-82
2024/01/15 13:32:40;;;;;;;0.50;0.50;;;2.50;99.90;;;;;;4999056;28;20198;-80
2024/01/15 13:35:09;;;;;;;0.70;0.70;;;2.50;99.90;;;;;;4994565;28;20210;-81
2024/01/15 13:37:37;;;;;;;0.70;0.70;;;2.40;99.90;;;;;;4988881;28;20556;-79
2024/01/15 13:40:07;;;;;;;3.25;2.10;;;2.50;99.90;;;;;;4990627;28;20541;-80
2024/01/15 13:42:34;;;;;;;0.68;0.68;;;2.50;99.90;;;;;;4985529;28;20202;-79
2024/01/15 13:45:01;;;;;;;0.75;0.75;;;2.50;99.90;;;;;;4997111;28;20208;-79
2024/01/15 13:47:28;;;;;;;0.50;0.50;;;2.40;99.90;;;;;;4971944;28;20206;-79
2024/01/15 13:49:55;;;;;;;0.70;0.70;;;2.40;99.90;;;;;;4991324;28;20226;-81
2024/01/15 13:52:24;;;;;;;0.60;0.60;;;2.40;99.90;;;;;;4976344;28;20499;-83
2024/01/15 13:54:51;;;;;;;1.23;1.13;;;2.30;99.90;;;;;;4990458;28;20286;-82
2024/01/15 13:57:19;;;;;;;0.80;0.80;;;2.30;99.90;;;;;;4974674;28;20286;-81
2024/01/15 13:59:48;;;;;;;1.63;1.52;;;2.40;99.90;;;;;;4969618;28;20211;-81
2024/01/15 14:02:16;;;;;;;2.00;1.90;;;2.30;99.90;;;;;;4976417;28;20207;-81
2024/01/15 14:04:48;;;;;;;0.70;0.70;;;2.30;99.90;;;;;;5000476;28;20260;-81
2024/01/15 14:07:16;;;;;;;0.98;0.98;;;2.30;99.90;;;;;;4991097;28;20421;-83
2024/01/15 14:09:43;;;;;;;0.50;0.50;;;2.30;99.90;;;;;;4980288;28;20455;-83
2024/01/15 14:12:11;;;;;;;1.85;1.67;;;2.30;99.90;;;;;;4990511;28;20249;-81
2024/01/15 14:14:39;;;;;;;0.47;0.47;;;2.30;99.90;;;;;;4974235;28;20264;-83
2024/01/15 14:17:07;;;;;;;2.70;1.50;;;2.30;99.90;;;;;;5006423;28;20349;-82
2024/01/15 14:19:34;;;;;;;0.70;0.70;;;2.30;99.90;;;;;;5003287;28;20209;-83
2024/01/15 14:22:22;;;;;;;0.70;0.70;;;2.30;99.90;;;;;;5002907;28;20209;-84
2024/01/15 14:24:49;;;;;;;0.98;0.98;;;2.20;99.90;;;;;;4999133;28;20191;-80
2024/01/15 14:27:17;;;;;;;1.77;1.67;;;2.30;99.90;;;;;;4995930;28;20202;-82
2024/01/15 14:29:44;;;;;;;0.70;0.70;;;2.30;99.90;;;;;;4997070;28;20208;-80
2024/01/15 14:32:13;;;;;;;0.50;0.50;;;2.20;99.90;;;;;;4982644;28;20398;-80
2024/01/15 14:34:40;;;;;;;0.50;0.50;;;2.20;99.90;;;;;;4999909;28;20269;-82
2024/01/15 14:37:08;;;;;;;2.08;1.98;;;2.20;99.90;;;;;;4976669;28;20232;-83
2024/01/15 14:39:36;;;;;;;0.57;0.57;;;2.20;99.90;;;;;;4999617;28;20583;-80
2024/01/15 14:42:03;;;;;;;0.40;0.40;;;2.20;99.90;;;;;;4999371;28;20266;-80
2024/01/15 14:44:30;;;;;;;0.50;0.50;;;2.20;99.90;;;;;;4998239;28;20492;-80
2024/01/15 14:46:58;;;;;;;0.75;0.75;;;2.20;99.90;;;;;;4999321;28;20486;-82
2024/01/15 14:49:25;;;;;;;0.70;0.70;;;2.20;99.90;;;;;;4993368;28;20226;-81
2024/01/15 14:51:52;;;;;;;0.50;0.50;;;2.20;99.90;;;;;;4987945;28;20431;-80
2024/01/15 14:54:20;;;;;;;0.93;0.93;;;2.10;99.90;;;;;;5004093;28;20198;-81
2024/01/15 14:56:50;;;;;;;2.53;2.35;;;2.00;99.90;;;;;;4974109;28;20285;-81